createdAt,value
2018-04-02T00:00:45.897Z,17.03
2018-04-02T00:03:12.235Z,16.87
2018-04-02T00:05:38.467Z,18.23
2018-04-02T00:08:04.730Z,19.73
2018-04-02T00:10:31.734Z,18.23
2018-04-02T00:13:00.634Z,18.17
2018-04-02T00:15:26.899Z,16.50
2018-04-02T00:17:53.885Z,15.93
2018-04-02T00:20:20.223Z,15.87
2018-04-02T00:22:46.454Z,14.60
2018-04-02T00:25:12.688Z,15.70
2018-04-02T00:27:38.918Z,14.80
2018-04-02T00:30:05.150Z,17.27
2018-04-02T00:32:31.413Z,16.97
2018-04-02T00:34:57.712Z,17.93
2018-04-02T00:37:24.006Z,18.30
2018-04-02T00:39:50.377Z,16.97
2018-04-02T00:42:16.961Z,20.37
2018-04-02T00:44:43.922Z,18.63
2018-04-02T00:47:10.138Z,20.30
2018-04-02T00:52:29.142Z,18.40
2018-04-02T00:54:55.354Z,21.60
2018-04-02T00:57:22.342Z,21.27
2018-04-02T00:59:48.576Z,19.80
2018-04-02T01:02:14.914Z,23.83
2018-04-02T01:04:41.142Z,21.50
2018-04-02T01:07:07.351Z,23.20
2018-04-02T01:09:33.569Z,24.20
2018-04-02T01:11:59.789Z,23.23
2018-04-02T01:14:26.041Z,22.83
2018-04-02T01:16:52.396Z,24.03
2018-04-02T01:19:18.635Z,23.27
2018-04-02T01:21:45.361Z,24.77
2018-04-02T01:24:11.606Z,24.47
2018-04-02T01:26:37.894Z,23.93
2018-04-02T01:29:04.484Z,25.40
2018-04-02T01:31:31.448Z,25.20
2018-04-02T01:33:58.409Z,26.67
2018-04-02T01:36:24.675Z,21.03
2018-04-02T01:38:50.881Z,23.17
2018-04-02T01:41:17.094Z,27.13
2018-04-02T01:43:43.642Z,27.10
2018-04-02T01:46:09.882Z,26.07
2018-04-02T01:48:36.104Z,27.07
2018-04-02T01:51:02.324Z,30.53
2018-04-02T01:53:28.914Z,26.43
2018-04-02T01:55:55.143Z,27.90
2018-04-02T01:58:21.366Z,29.47
2018-04-02T02:00:47.640Z,30.20
2018-04-02T02:03:13.912Z,28.50
2018-04-02T02:05:40.152Z,28.37
2018-04-02T02:08:08.826Z,30.77
2018-04-02T02:10:35.037Z,30.30
2018-04-02T02:13:01.255Z,32.23
2018-04-02T02:15:27.496Z,32.90
2018-04-02T02:17:53.720Z,32.63
2018-04-02T02:20:19.974Z,32.63
2018-04-02T02:22:46.205Z,31.60
2018-04-02T02:25:12.469Z,33.73
2018-04-02T02:27:39.428Z,31.27
2018-04-02T02:30:05.651Z,33.97
2018-04-02T02:32:32.178Z,33.20
2018-04-02T02:34:59.230Z,33.00
2018-04-02T02:37:25.469Z,32.40
2018-04-02T02:39:51.705Z,32.47
2018-04-02T02:42:17.913Z,33.07
2018-04-02T02:44:44.948Z,31.53
2018-04-02T02:47:11.282Z,31.67
2018-04-02T02:49:37.501Z,30.97
2018-04-02T02:52:03.740Z,32.10
2018-04-02T02:54:29.955Z,33.57
2018-04-02T02:56:56.171Z,31.80
2018-04-02T02:59:22.394Z,34.17
2018-04-02T03:01:48.611Z,36.37
2018-04-02T03:04:14.845Z,34.47
2018-04-02T03:06:41.070Z,36.77
2018-04-02T03:09:07.353Z,38.47
2018-04-02T03:11:34.651Z,36.40
2018-04-02T03:14:00.889Z,35.20
2018-04-02T03:16:27.112Z,36.50
2018-04-02T03:18:53.389Z,34.10
2018-04-02T03:21:20.345Z,36.97
2018-04-02T03:23:47.683Z,34.47
2018-04-02T03:26:13.968Z,33.27
2018-04-02T03:28:40.216Z,35.63
2018-04-02T03:31:06.946Z,35.47
2018-04-02T03:33:33.163Z,36.20
2018-04-02T03:35:59.401Z,35.87
2018-04-02T03:38:25.699Z,36.30
2018-04-02T03:40:51.927Z,35.03
2018-04-02T03:43:18.138Z,34.23
2018-04-02T03:45:45.098Z,34.97
2018-04-02T03:48:11.347Z,36.00
2018-04-02T03:50:37.708Z,33.80
2018-04-02T03:53:03.933Z,35.67
2018-04-02T03:55:30.254Z,35.67
2018-04-02T03:57:56.469Z,34.57
2018-04-02T04:00:22.721Z,37.80
2018-04-02T04:02:48.954Z,36.40
2018-04-02T04:05:15.208Z,36.10
2018-04-02T04:07:41.447Z,37.27
2018-04-02T04:10:08.402Z,39.10
2018-04-02T04:12:35.352Z,39.00
2018-04-02T04:15:01.579Z,37.93
2018-04-02T04:17:28.698Z,37.33
2018-04-02T04:19:54.981Z,37.73
2018-04-02T04:22:21.183Z,37.10
2018-04-02T04:24:48.184Z,36.13
2018-04-02T04:27:14.469Z,36.60
2018-04-02T04:29:41.072Z,36.23
2018-04-02T04:32:07.286Z,35.93
2018-04-02T04:34:33.529Z,35.50
2018-04-02T04:37:00.169Z,37.97
2018-04-02T04:39:26.491Z,36.40
2018-04-02T04:41:52.703Z,36.63
2018-04-02T04:44:18.933Z,38.10
2018-04-02T04:46:45.133Z,37.90
2018-04-02T04:49:11.410Z,34.17
2018-04-02T04:51:37.771Z,34.77
2018-04-02T04:54:04.160Z,34.03
2018-04-02T04:56:30.394Z,34.07
2018-04-02T04:58:56.754Z,37.03
2018-04-02T05:01:22.976Z,36.93
2018-04-02T05:03:49.340Z,36.67
2018-04-02T05:06:15.557Z,38.20
2018-04-02T05:08:42.532Z,37.40
2018-04-02T05:11:08.783Z,36.50
2018-04-02T05:13:35.108Z,36.00
2018-04-02T05:16:01.317Z,32.87
2018-04-02T05:18:27.531Z,35.70
2018-04-02T05:20:53.745Z,35.92
2018-04-02T05:23:20.005Z,37.75
2018-04-02T05:25:46.217Z,35.80
2018-04-02T05:28:12.473Z,33.07
2018-04-02T05:30:38.849Z,35.00
2018-04-02T05:33:05.077Z,32.90
2018-04-02T05:35:31.326Z,34.10
2018-04-02T05:37:58.338Z,34.80
2018-04-02T05:40:24.570Z,32.40
2018-04-02T05:42:50.817Z,34.37
2018-04-02T05:45:17.105Z,33.47
2018-04-02T05:47:43.387Z,37.53
2018-04-02T05:50:10.317Z,35.67
2018-04-02T05:52:36.526Z,36.13
2018-04-02T05:55:02.937Z,36.33
2018-04-02T05:57:29.153Z,34.30
2018-04-02T05:59:55.669Z,37.70
2018-04-02T06:02:22.663Z,34.60
2018-04-02T06:04:48.866Z,37.20
2018-04-02T06:07:15.082Z,36.17
2018-04-02T06:09:41.344Z,37.07
2018-04-02T06:12:07.549Z,37.37
2018-04-02T06:14:33.842Z,42.67
2018-04-02T06:17:00.069Z,38.50
2018-04-02T06:19:26.278Z,38.40
2018-04-02T06:21:52.489Z,38.77
2018-04-02T06:24:18.696Z,42.77
2018-04-02T06:26:44.965Z,40.57
2018-04-02T06:29:11.166Z,43.30
2018-04-02T06:31:37.432Z,45.77
2018-04-02T06:34:04.447Z,41.87
2018-04-02T06:36:30.667Z,44.03
2018-04-02T06:38:56.909Z,47.50
2018-04-02T06:41:23.118Z,41.20
2018-04-02T06:43:49.409Z,44.30
2018-04-02T06:46:15.836Z,45.63
2018-04-02T06:48:42.070Z,40.43
2018-04-02T06:51:08.313Z,38.43
2018-04-02T06:53:35.284Z,35.70
2018-04-02T06:56:01.533Z,36.00
2018-04-02T06:58:27.799Z,36.90
2018-04-02T07:00:54.028Z,33.63
2018-04-02T07:03:20.291Z,32.73
2018-04-02T07:05:46.493Z,28.87
2018-04-02T07:08:13.469Z,28.43
2018-04-02T07:10:39.757Z,28.27
2018-04-02T07:13:05.978Z,30.53
2018-04-02T07:15:32.216Z,28.67
2018-04-02T07:17:58.741Z,31.63
2018-04-02T07:20:25.021Z,28.20
2018-04-02T07:22:51.268Z,28.80
2018-04-02T07:25:17.522Z,29.50
2018-04-02T07:27:44.047Z,31.80
2018-04-02T07:30:10.343Z,27.77
2018-04-02T07:32:36.603Z,27.63
2018-04-02T07:35:02.878Z,29.80
2018-04-02T07:37:29.918Z,29.10
2018-04-02T07:39:56.184Z,25.73
2018-04-02T07:42:22.406Z,27.37
2018-04-02T07:44:48.671Z,26.27
2018-04-02T07:47:14.987Z,25.03
2018-04-02T07:49:41.284Z,21.80
2018-04-02T07:52:08.266Z,25.60
2018-04-02T07:54:34.565Z,26.70
2018-04-02T07:57:01.562Z,17.60
2018-04-02T07:59:27.779Z,19.33
2018-04-02T08:01:54.074Z,19.90
2018-04-02T08:04:20.355Z,19.70
2018-04-02T08:06:46.608Z,18.93
2018-04-02T08:09:12.879Z,21.37
2018-04-02T08:11:39.118Z,23.70
2018-04-02T08:14:05.379Z,22.60
2018-04-02T08:16:31.987Z,20.97
2018-04-02T08:18:58.780Z,23.37
2018-04-02T08:21:25.407Z,24.07
2018-04-02T08:23:51.619Z,24.60
2018-04-02T08:26:24.695Z,20.33
2018-04-02T08:28:51.379Z,18.27
2018-04-02T08:31:17.642Z,16.77
2018-04-02T08:33:43.864Z,14.43
2018-04-02T08:36:10.158Z,14.23
2018-04-02T08:38:36.381Z,14.67
2018-04-02T08:41:02.726Z,16.07
2018-04-02T08:43:28.965Z,14.47
2018-04-02T08:45:55.941Z,14.70
2018-04-02T08:48:22.185Z,13.73
2018-04-02T08:50:48.410Z,7.93
2018-04-02T08:53:14.737Z,10.83
2018-04-02T08:55:40.977Z,9.90
2018-04-02T08:58:07.250Z,10.00
2018-04-02T09:00:33.498Z,9.33
2018-04-02T09:03:00.607Z,9.60
2018-04-02T09:05:26.887Z,10.20
2018-04-02T09:07:53.098Z,9.80
2018-04-02T09:10:19.515Z,9.50
2018-04-02T09:12:45.849Z,10.90
2018-04-02T09:15:12.119Z,9.27
2018-04-02T09:17:39.124Z,8.70
2018-04-02T09:20:06.991Z,8.50
2018-04-02T09:22:33.252Z,9.33
2018-04-02T09:24:59.502Z,8.90
2018-04-02T09:27:25.772Z,9.13
2018-04-02T09:29:52.419Z,9.90
2018-04-02T09:32:18.645Z,8.87
2018-04-02T09:34:45.203Z,9.10
2018-04-02T09:37:11.498Z,9.03
2018-04-02T09:39:37.916Z,8.33
2018-04-02T09:42:05.033Z,8.97
2018-04-02T09:44:31.224Z,8.80
2018-04-02T09:46:57.512Z,11.30
2018-04-02T09:49:24.803Z,9.67
2018-04-02T09:51:51.130Z,10.60
2018-04-02T09:54:17.419Z,7.63
2018-04-02T09:56:43.604Z,7.93
2018-04-02T09:59:09.839Z,8.57
2018-04-02T10:01:36.078Z,7.60
2018-04-02T10:04:02.592Z,7.27
2018-04-02T10:06:28.801Z,8.00
2018-04-02T10:08:55.596Z,9.70
2018-04-02T10:11:21.833Z,8.00
2018-04-02T10:13:48.129Z,8.00
2018-04-02T10:16:14.470Z,8.03
2018-04-02T10:18:40.721Z,10.00
2018-04-02T10:21:07.019Z,8.33
2018-04-02T10:23:33.264Z,9.47
2018-04-02T10:25:59.929Z,9.30
2018-04-02T10:28:26.181Z,9.23
2018-04-02T10:30:53.891Z,9.77
2018-04-02T10:33:20.110Z,9.43
2018-04-02T10:35:46.347Z,10.80
2018-04-02T10:38:12.586Z,9.30
2018-04-02T10:40:38.818Z,9.40
2018-04-02T10:43:05.056Z,10.67
2018-04-02T10:45:31.256Z,10.10
2018-04-02T10:47:57.528Z,9.07
2018-04-02T10:50:23.734Z,11.03
2018-04-02T10:52:50.053Z,11.60
2018-04-02T10:55:16.285Z,12.47
2018-04-02T10:57:42.597Z,11.80
2018-04-02T11:00:09.278Z,11.17
2018-04-02T11:02:35.486Z,11.03
2018-04-02T11:05:01.699Z,11.30
2018-04-02T11:07:27.924Z,11.80
2018-04-02T11:09:54.142Z,11.03
2018-04-02T11:12:20.371Z,12.43
2018-04-02T11:14:46.573Z,11.93
2018-04-02T11:17:13.578Z,11.13
2018-04-02T11:19:39.814Z,12.60
2018-04-02T11:22:06.468Z,12.63
2018-04-02T11:24:32.733Z,12.30
2018-04-02T11:26:58.969Z,13.43
2018-04-02T11:29:25.209Z,12.50
2018-04-02T11:31:51.467Z,12.43
2018-04-02T11:34:17.894Z,13.20
2018-04-02T11:36:44.243Z,14.37
2018-04-02T11:39:11.221Z,14.77
2018-04-02T11:41:38.192Z,15.50
2018-04-02T11:44:04.397Z,15.30
2018-04-02T11:46:30.603Z,15.33
2018-04-02T11:48:57.614Z,17.37
2018-04-02T11:51:23.812Z,17.43
2018-04-02T11:53:50.082Z,17.57
2018-04-02T11:56:16.332Z,17.83
2018-04-02T11:58:50.477Z,18.70
2018-04-02T12:01:17.444Z,21.60
2018-04-02T12:03:43.650Z,22.57
2018-04-02T12:06:10.650Z,20.70
2018-04-02T12:08:36.912Z,22.03
2018-04-02T12:11:03.927Z,22.63
2018-04-02T12:13:30.347Z,23.87
2018-04-02T12:15:56.685Z,23.17
2018-04-02T12:18:23.013Z,24.97
2018-04-02T12:20:49.601Z,22.43
2018-04-02T12:23:16.021Z,22.70
2018-04-02T12:25:43.131Z,25.80
2018-04-02T12:28:09.802Z,24.10
2018-04-02T12:30:36.019Z,23.50
2018-04-02T12:33:03.173Z,24.73
2018-04-02T12:35:31.094Z,24.50
2018-04-02T12:37:57.345Z,24.57
2018-04-02T12:40:23.588Z,24.60
2018-04-02T12:42:49.837Z,24.77
2018-04-02T12:45:16.052Z,23.90
2018-04-02T12:47:42.335Z,25.63
2018-04-02T12:50:08.704Z,25.00
2018-04-02T12:52:34.997Z,25.30
2018-04-02T12:55:01.250Z,26.67
2018-04-02T12:57:27.518Z,26.77
2018-04-02T12:59:55.132Z,27.37
2018-04-02T13:02:21.346Z,27.77
2018-04-02T13:04:47.555Z,27.23
2018-04-02T13:07:14.545Z,26.33
2018-04-02T13:09:40.899Z,25.87
2018-04-02T13:12:07.152Z,25.90
2018-04-02T13:14:33.456Z,24.87
2018-04-02T13:16:59.738Z,26.10
2018-04-02T13:19:26.399Z,28.30
2018-04-02T13:21:52.621Z,27.80
2018-04-02T13:24:18.856Z,29.13
2018-04-02T13:26:45.158Z,28.13
2018-04-02T13:29:12.135Z,28.10
2018-04-02T13:31:38.401Z,28.03
2018-04-02T13:34:04.618Z,26.07
2018-04-02T13:36:30.826Z,25.97
2018-04-02T13:38:57.047Z,24.50
2018-04-02T13:41:23.275Z,27.90
2018-04-02T13:43:49.478Z,28.20
2018-04-02T13:46:15.733Z,25.23
2018-04-02T13:48:41.994Z,27.60
2018-04-02T13:51:08.216Z,29.00
2018-04-02T13:53:34.556Z,29.50
2018-04-02T13:56:00.837Z,27.67
2018-04-02T13:58:27.058Z,27.00
2018-04-02T14:00:54.049Z,28.90
2018-04-02T14:03:20.303Z,30.93
2018-04-02T14:05:46.534Z,30.10
2018-04-02T14:08:13.594Z,31.30
2018-04-02T14:10:40.755Z,29.83
2018-04-02T14:13:07.745Z,29.67
2018-04-02T14:15:34.244Z,33.90
2018-04-02T14:18:00.499Z,35.33
2018-04-02T14:20:26.759Z,31.87
2018-04-02T14:22:53.064Z,35.30
2018-04-02T14:25:19.425Z,32.90
2018-04-02T14:27:46.392Z,31.50
2018-04-02T14:30:12.694Z,34.60
2018-04-02T14:32:39.234Z,33.37
2018-04-02T14:35:05.532Z,34.83
2018-04-02T14:37:31.760Z,33.90
2018-04-02T14:39:58.045Z,32.07
2018-04-02T14:42:24.323Z,35.40
2018-04-02T14:44:50.585Z,34.93
2018-04-02T14:47:16.904Z,35.93
2018-04-02T14:49:43.149Z,36.20
2018-04-02T14:52:09.486Z,37.43
2018-04-02T14:54:35.724Z,38.50
2018-04-02T14:57:01.985Z,39.23
2018-04-02T14:59:28.232Z,38.07
2018-04-02T15:01:54.565Z,39.27
2018-04-02T15:04:20.814Z,39.47
2018-04-02T15:06:47.137Z,43.43
2018-04-02T15:09:13.361Z,42.87
2018-04-02T15:11:39.576Z,43.07
2018-04-02T15:14:06.108Z,43.03
2018-04-02T15:16:32.362Z,45.40
2018-04-02T15:18:58.582Z,44.47
2018-04-02T15:21:24.814Z,47.13
2018-04-02T15:23:51.062Z,48.13
2018-04-02T15:26:17.761Z,45.80
2018-04-02T15:28:43.981Z,47.20
2018-04-02T15:31:10.956Z,41.57
2018-04-02T15:33:38.232Z,42.40
2018-04-02T15:36:04.469Z,45.40
2018-04-02T15:38:30.844Z,45.93
2018-04-02T15:40:58.019Z,42.30
2018-04-02T15:43:24.254Z,45.73
2018-04-02T15:45:50.543Z,41.63
2018-04-02T15:48:17.500Z,46.33
2018-04-02T15:50:44.473Z,44.03
2018-04-02T15:53:10.804Z,41.50
2018-04-02T15:55:37.062Z,42.87
2018-04-02T15:58:03.295Z,39.60
2018-04-02T16:00:29.567Z,45.17
2018-04-02T16:02:56.544Z,44.40
2018-04-02T16:05:22.863Z,42.47
2018-04-02T16:07:49.109Z,42.07
2018-04-02T16:10:15.406Z,42.70
2018-04-02T16:12:42.127Z,41.90
2018-04-02T16:15:09.109Z,41.93
2018-04-02T16:17:35.362Z,41.80
2018-04-02T16:20:01.636Z,41.20
2018-04-02T16:22:28.624Z,42.40
2018-04-02T16:24:54.921Z,40.60
2018-04-02T16:27:21.893Z,44.57
2018-04-02T16:29:48.132Z,45.60
2018-04-02T16:32:14.382Z,45.20
2018-04-02T16:34:40.698Z,42.47
2018-04-02T16:37:07.428Z,47.00
2018-04-02T16:39:33.885Z,44.80
2018-04-02T16:42:00.182Z,43.23
2018-04-02T16:44:26.450Z,45.60
2018-04-02T16:46:52.720Z,44.07
2018-04-02T16:49:19.707Z,44.00
2018-04-02T16:51:45.943Z,45.77
2018-04-02T16:57:04.901Z,45.70
2018-04-02T16:59:31.166Z,46.00
2018-04-02T17:01:57.398Z,47.63
2018-04-02T17:04:23.858Z,49.30
2018-04-02T17:06:50.933Z,48.30
2018-04-02T17:09:17.228Z,49.90
2018-04-02T17:11:43.458Z,46.97
2018-04-02T17:14:09.709Z,46.70
2018-04-02T17:16:36.854Z,45.60
2018-04-02T17:19:03.840Z,46.80
2018-04-02T17:21:30.097Z,48.73
2018-04-02T17:23:56.305Z,49.00
2018-04-02T17:26:22.524Z,47.17
2018-04-02T17:28:48.815Z,49.00
2018-04-02T17:31:15.791Z,42.80
2018-04-02T17:33:41.990Z,45.37
2018-04-02T17:36:08.957Z,43.97
2018-04-02T17:38:35.196Z,44.47
2018-04-02T17:41:01.470Z,43.17
2018-04-02T17:43:27.686Z,42.80
2018-04-02T17:45:53.978Z,41.70
2018-04-02T17:48:20.204Z,41.97
2018-04-02T17:50:46.511Z,41.83
2018-04-02T17:53:13.465Z,39.70
2018-04-02T17:55:40.456Z,40.13
2018-04-02T17:58:06.806Z,40.17
2018-04-02T18:00:33.114Z,37.50
2018-04-02T18:02:59.375Z,39.53
2018-04-02T18:05:25.679Z,40.63
2018-04-02T18:07:52.029Z,39.77
2018-04-02T18:10:18.318Z,39.77
2018-04-02T18:12:44.654Z,39.33
2018-04-02T18:15:11.032Z,40.43
2018-04-02T18:17:37.285Z,39.67
2018-04-02T18:20:03.567Z,37.20
2018-04-02T18:22:29.786Z,41.57
2018-04-02T18:24:56.160Z,40.20
2018-04-02T18:27:22.375Z,37.63
2018-04-02T18:29:48.608Z,39.80
2018-04-02T18:32:15.001Z,37.50
2018-04-02T18:34:41.244Z,37.67
2018-04-02T18:37:07.503Z,36.80
2018-04-02T18:39:33.736Z,35.03
2018-04-02T18:42:00.386Z,39.50
2018-04-02T18:44:28.106Z,34.77
2018-04-02T18:46:54.396Z,35.60
2018-04-02T18:49:21.413Z,38.87
2018-04-02T18:51:47.644Z,35.03
2018-04-02T18:54:28.963Z,36.20
2018-04-02T18:56:56.007Z,33.83
2018-04-02T18:59:22.988Z,36.70
2018-04-02T19:01:49.466Z,36.50
2018-04-02T19:04:15.711Z,33.30
2018-04-02T19:06:42.679Z,33.70
2018-04-02T19:09:08.935Z,31.73
2018-04-02T19:11:35.239Z,35.03
2018-04-02T19:14:01.518Z,33.57
2018-04-02T19:16:27.786Z,34.37
2018-04-02T19:18:54.514Z,32.70
2018-04-02T19:21:22.241Z,33.03
2018-04-02T19:23:48.474Z,32.43
2018-04-02T19:26:14.739Z,30.40
2018-04-02T19:28:41.001Z,29.90
2018-04-02T19:31:07.208Z,31.40
2018-04-02T19:33:34.183Z,33.10
2018-04-02T19:36:00.559Z,31.63
2018-04-02T19:38:26.942Z,28.80
2018-04-02T19:40:53.315Z,30.10
2018-04-02T19:43:19.596Z,27.93
2018-04-02T19:45:46.015Z,27.77
2018-04-02T19:48:13.523Z,28.13
2018-04-02T19:50:43.859Z,28.33
2018-04-02T19:53:10.109Z,27.70
2018-04-02T19:55:37.243Z,27.50
2018-04-02T19:58:03.470Z,29.47
2018-04-02T20:00:29.730Z,26.90
2018-04-02T20:02:56.719Z,28.43
2018-04-02T20:05:22.956Z,25.80
2018-04-02T20:07:49.176Z,29.37
2018-04-02T20:10:15.405Z,26.60
2018-04-02T20:12:41.688Z,27.13
2018-04-02T20:15:07.910Z,27.23
2018-04-02T20:17:34.191Z,24.97
2018-04-02T20:20:00.510Z,27.10
2018-04-02T20:22:26.858Z,26.30
2018-04-02T20:24:53.089Z,26.70
2018-04-02T20:27:19.469Z,26.03
2018-04-02T20:29:45.730Z,25.63
2018-04-02T20:32:12.162Z,27.90
2018-04-02T20:34:38.430Z,26.60
2018-04-02T20:37:04.706Z,26.30
2018-04-02T20:39:31.695Z,26.53
2018-04-02T20:41:57.934Z,27.27
2018-04-02T20:44:24.184Z,26.83
2018-04-02T20:46:50.448Z,27.97
2018-04-02T20:49:17.404Z,27.90
2018-04-02T20:51:43.683Z,27.53
2018-04-02T20:54:09.913Z,27.13
2018-04-02T20:56:36.145Z,27.70
2018-04-02T20:59:02.472Z,26.33
2018-04-02T21:01:28.704Z,26.97
2018-04-02T21:03:54.973Z,28.37
2018-04-02T21:06:21.962Z,26.37
2018-04-02T21:08:48.209Z,28.47
2018-04-02T21:11:14.502Z,28.10
2018-04-02T21:13:40.749Z,26.03
2018-04-02T21:16:07.176Z,26.77
2018-04-02T21:18:33.396Z,27.97
2018-04-02T21:20:59.728Z,27.70
2018-04-02T21:23:25.993Z,26.97
2018-04-02T21:25:52.206Z,24.57
2018-04-02T21:28:18.438Z,26.87
2018-04-02T21:30:44.782Z,25.87
2018-04-02T21:33:11.081Z,25.47
2018-04-02T21:35:37.345Z,26.20
2018-04-02T21:38:03.602Z,27.27
2018-04-02T21:40:30.723Z,26.40
2018-04-02T21:42:56.993Z,27.07
2018-04-02T21:45:23.993Z,26.27
2018-04-02T21:47:50.243Z,26.97
2018-04-02T21:50:16.469Z,26.70
2018-04-02T21:52:42.763Z,23.90
2018-04-02T21:55:09.093Z,26.17
2018-04-02T21:57:35.332Z,26.20
2018-04-02T22:00:01.785Z,25.87
2018-04-02T22:02:28.131Z,25.80
2018-04-02T22:04:55.128Z,23.40
2018-04-02T22:07:21.370Z,24.00
2018-04-02T22:09:47.687Z,23.70
2018-04-02T22:12:13.974Z,23.93
2018-04-02T22:14:40.954Z,23.80
2018-04-02T22:17:07.188Z,25.87
2018-04-02T22:19:33.430Z,25.10
2018-04-02T22:21:59.674Z,21.80
2018-04-02T22:24:25.899Z,23.93
2018-04-02T22:26:52.128Z,24.47
2018-04-02T22:29:18.406Z,20.83
2018-04-02T22:31:45.381Z,21.57
2018-04-02T22:34:11.657Z,23.03
2018-04-02T22:36:37.950Z,19.20
2018-04-02T22:39:05.011Z,18.90
2018-04-02T22:41:31.274Z,19.37
2018-04-02T22:44:00.783Z,19.07
2018-04-02T22:46:27.744Z,20.53
2018-04-02T22:48:54.755Z,19.10
2018-04-02T22:51:21.061Z,17.10
2018-04-02T22:53:47.387Z,17.47
2018-04-02T22:56:13.593Z,16.37
2018-04-02T22:58:40.614Z,17.97
2018-04-02T23:01:06.862Z,16.80
2018-04-02T23:03:33.872Z,18.50
2018-04-02T23:06:00.170Z,16.10
2018-04-02T23:08:26.407Z,15.27
2018-04-02T23:10:52.666Z,16.37
2018-04-02T23:13:18.891Z,15.90
2018-04-02T23:15:45.142Z,16.07
2018-04-02T23:18:12.118Z,15.57
2018-04-02T23:20:39.136Z,14.67
2018-04-02T23:23:06.202Z,13.83
2018-04-02T23:25:33.195Z,15.23
2018-04-02T23:27:59.434Z,14.60
2018-04-02T23:30:25.655Z,12.90
2018-04-02T23:32:51.909Z,14.87
2018-04-02T23:35:18.144Z,14.67
2018-04-02T23:37:44.376Z,14.60
2018-04-02T23:40:12.312Z,15.40
2018-04-02T23:42:38.515Z,13.23
2018-04-02T23:45:04.869Z,13.60
2018-04-02T23:47:31.090Z,13.30
2018-04-02T23:49:57.458Z,14.00
2018-04-02T23:52:23.722Z,13.37
2018-04-02T23:54:50.758Z,14.07
2018-04-02T23:57:17.712Z,13.10
2018-04-02T23:59:44.723Z,13.70
